sensor_id;sensor_type;location;lat;lon;timestamp;P1;durP1;ratioP1;P2;durP2;ratioP2
6642;SDS011;3357;48.050;7.800;2023-11-22T00:00:13;20.13;;;8.90;;
6642;SDS011;3357;48.050;7.800;2023-11-22T00:02:38;18.23;;;8.83;;
6642;SDS011;3357;48.050;7.800;2023-11-22T00:05:04;14.50;;;8.27;;
6642;SDS011;3357;48.050;7.800;2023-11-22T00:07:30;13.00;;;7.90;;
6642;SDS011;3357;48.050;7.800;2023-11-22T00:09:56;12.57;;;8.10;;
6642;SDS011;3357;48.050;7.800;2023-11-22T00:12:23;13.80;;;8.20;;
6642;SDS011;3357;48.050;7.800;2023-11-22T00:14:49;15.67;;;9.00;;
6642;SDS011;3357;48.050;7.800;2023-11-22T00:17:15;19.50;;;9.70;;
6642;SDS011;3357;48.050;7.800;2023-11-22T00:19:42;17.73;;;8.50;;
6642;SDS011;3357;48.050;7.800;2023-11-22T00:22:11;17.30;;;9.00;;
6642;SDS011;3357;48.050;7.800;2023-11-22T00:24:41;20.20;;;8.80;;
6642;SDS011;3357;48.050;7.800;2023-11-22T00:27:07;16.40;;;9.23;;
6642;SDS011;3357;48.050;7.800;2023-11-22T00:29:33;14.70;;;8.10;;
6642;SDS011;3357;48.050;7.800;2023-11-22T00:31:58;19.10;;;9.53;;
6642;SDS011;3357;48.050;7.800;2023-11-22T00:34:24;20.80;;;8.70;;
6642;SDS011;3357;48.050;7.800;2023-11-22T00:36:49;15.67;;;8.60;;
6642;SDS011;3357;48.050;7.800;2023-11-22T00:39:15;16.10;;;8.70;;
6642;SDS011;3357;48.050;7.800;2023-11-22T00:41:41;18.80;;;9.17;;
6642;SDS011;3357;48.050;7.800;2023-11-22T00:44:07;18.00;;;9.67;;
6642;SDS011;3357;48.050;7.800;2023-11-22T00:46:32;15.50;;;8.73;;
6642;SDS011;3357;48.050;7.800;2023-11-22T00:48:57;15.53;;;8.97;;
6642;SDS011;3357;48.050;7.800;2023-11-22T00:51:23;20.10;;;9.70;;
6642;SDS011;3357;48.050;7.800;2023-11-22T00:53:48;16.87;;;8.73;;
6642;SDS011;3357;48.050;7.800;2023-11-22T00:56:14;19.77;;;8.93;;
6642;SDS011;3357;48.050;7.800;2023-11-22T00:58:40;14.27;;;8.63;;
6642;SDS011;3357;48.050;7.800;2023-11-22T01:01:05;29.70;;;9.60;;
6642;SDS011;3357;48.050;7.800;2023-11-22T01:03:30;17.27;;;9.57;;
6642;SDS011;3357;48.050;7.800;2023-11-22T01:05:55;21.60;;;10.17;;
6642;SDS011;3357;48.050;7.800;2023-11-22T01:08:21;15.67;;;9.30;;
6642;SDS011;3357;48.050;7.800;2023-11-22T01:10:47;19.80;;;10.07;;
6642;SDS011;3357;48.050;7.800;2023-11-22T01:13:12;17.80;;;9.67;;
6642;SDS011;3357;48.050;7.800;2023-11-22T01:15:38;18.07;;;9.00;;
6642;SDS011;3357;48.050;7.800;2023-11-22T01:18:04;19.30;;;9.20;;
6642;SDS011;3357;48.050;7.800;2023-11-22T01:20:29;14.37;;;8.63;;
6642;SDS011;3357;48.050;7.800;2023-11-22T01:22:54;17.80;;;8.73;;
6642;SDS011;3357;48.050;7.800;2023-11-22T01:25:20;15.43;;;8.00;;
6642;SDS011;3357;48.050;7.800;2023-11-22T01:27:45;15.00;;;8.57;;
6642;SDS011;3357;48.050;7.800;2023-11-22T01:30:10;16.87;;;8.60;;
6642;SDS011;3357;48.050;7.800;2023-11-22T01:32:37;19.37;;;8.90;;
6642;SDS011;3357;48.050;7.800;2023-11-22T01:35:02;18.37;;;9.93;;
6642;SDS011;3357;48.050;7.800;2023-11-22T01:37:28;19.83;;;9.97;;
6642;SDS011;3357;48.050;7.800;2023-11-22T01:39:53;18.90;;;9.67;;
6642;SDS011;3357;48.050;7.800;2023-11-22T01:42:19;17.30;;;8.83;;
6642;SDS011;3357;48.050;7.800;2023-11-22T01:44:45;19.40;;;9.83;;
6642;SDS011;3357;48.050;7.800;2023-11-22T01:47:12;17.30;;;9.37;;
6642;SDS011;3357;48.050;7.800;2023-11-22T01:49:39;16.60;;;9.57;;
6642;SDS011;3357;48.050;7.800;2023-11-22T01:52:04;16.90;;;9.77;;
6642;SDS011;3357;48.050;7.800;2023-11-22T01:54:29;16.80;;;10.10;;
6642;SDS011;3357;48.050;7.800;2023-11-22T01:56:55;15.70;;;8.83;;
6642;SDS011;3357;48.050;7.800;2023-11-22T01:59:20;18.43;;;10.20;;
6642;SDS011;3357;48.050;7.800;2023-11-22T02:01:46;18.40;;;9.60;;
6642;SDS011;3357;48.050;7.800;2023-11-22T02:04:12;19.37;;;10.20;;
6642;SDS011;3357;48.050;7.800;2023-11-22T02:06:37;21.87;;;9.87;;
6642;SDS011;3357;48.050;7.800;2023-11-22T02:09:03;19.10;;;9.83;;
6642;SDS011;3357;48.050;7.800;2023-11-22T02:11:28;16.83;;;9.33;;
6642;SDS011;3357;48.050;7.800;2023-11-22T02:13:54;15.60;;;8.77;;
6642;SDS011;3357;48.050;7.800;2023-11-22T02:16:19;20.50;;;8.63;;
6642;SDS011;3357;48.050;7.800;2023-11-22T02:18:45;15.20;;;8.70;;
6642;SDS011;3357;48.050;7.800;2023-11-22T02:21:11;13.43;;;8.27;;
6642;SDS011;3357;48.050;7.800;2023-11-22T02:23:36;9.53;;;6.87;;
6642;SDS011;3357;48.050;7.800;2023-11-22T02:26:01;13.73;;;6.10;;
6642;SDS011;3357;48.050;7.800;2023-11-22T02:28:27;11.23;;;7.60;;
6642;SDS011;3357;48.050;7.800;2023-11-22T02:30:52;10.00;;;6.13;;
6642;SDS011;3357;48.050;7.800;2023-11-22T02:33:19;8.37;;;6.10;;
6642;SDS011;3357;48.050;7.800;2023-11-22T02:35:45;8.33;;;6.40;;
6642;SDS011;3357;48.050;7.800;2023-11-22T02:38:10;11.97;;;7.47;;
6642;SDS011;3357;48.050;7.800;2023-11-22T02:40:35;10.93;;;6.83;;
6642;SDS011;3357;48.050;7.800;2023-11-22T02:43:00;11.27;;;7.47;;
6642;SDS011;3357;48.050;7.800;2023-11-22T02:45:30;11.20;;;7.50;;
6642;SDS011;3357;48.050;7.800;2023-11-22T02:47:55;17.13;;;7.80;;
6642;SDS011;3357;48.050;7.800;2023-11-22T02:50:21;12.90;;;7.77;;
6642;SDS011;3357;48.050;7.800;2023-11-22T02:52:46;12.23;;;7.57;;
6642;SDS011;3357;48.050;7.800;2023-11-22T02:55:12;13.43;;;8.13;;
6642;SDS011;3357;48.050;7.800;2023-11-22T02:57:37;10.50;;;7.70;;
6642;SDS011;3357;48.050;7.800;2023-11-22T03:00:05;13.33;;;7.50;;
6642;SDS011;3357;48.050;7.800;2023-11-22T03:02:30;9.70;;;6.87;;
6642;SDS011;3357;48.050;7.800;2023-11-22T03:04:57;10.20;;;6.77;;
6642;SDS011;3357;48.050;7.800;2023-11-22T03:07:23;9.27;;;6.40;;
6642;SDS011;3357;48.050;7.800;2023-11-22T03:09:48;9.83;;;6.53;;
6642;SDS011;3357;48.050;7.800;2023-11-22T03:12:15;11.40;;;6.07;;
6642;SDS011;3357;48.050;7.800;2023-11-22T03:14:41;7.97;;;6.13;;
6642;SDS011;3357;48.050;7.800;2023-11-22T03:17:06;10.17;;;6.93;;
6642;SDS011;3357;48.050;7.800;2023-11-22T03:19:31;10.80;;;6.43;;
6642;SDS011;3357;48.050;7.800;2023-11-22T03:21:59;12.63;;;5.40;;
6642;SDS011;3357;48.050;7.800;2023-11-22T03:24:24;7.07;;;5.30;;
6642;SDS011;3357;48.050;7.800;2023-11-22T03:26:49;9.60;;;5.50;;
6642;SDS011;3357;48.050;7.800;2023-11-22T03:29:15;10.17;;;5.67;;
6642;SDS011;3357;48.050;7.800;2023-11-22T03:31:43;6.70;;;5.37;;
6642;SDS011;3357;48.050;7.800;2023-11-22T03:34:10;8.03;;;5.90;;
6642;SDS011;3357;48.050;7.800;2023-11-22T03:36:35;5.07;;;4.50;;
6642;SDS011;3357;48.050;7.800;2023-11-22T03:39:00;5.00;;;4.60;;
6642;SDS011;3357;48.050;7.800;2023-11-22T03:41:26;4.70;;;4.20;;
6642;SDS011;3357;48.050;7.800;2023-11-22T03:43:51;4.37;;;3.97;;
6642;SDS011;3357;48.050;7.800;2023-11-22T03:46:16;5.30;;;4.17;;
6642;SDS011;3357;48.050;7.800;2023-11-22T03:48:41;6.53;;;4.60;;
6642;SDS011;3357;48.050;7.800;2023-11-22T03:51:07;5.80;;;4.83;;
6642;SDS011;3357;48.050;7.800;2023-11-22T03:53:33;12.43;;;5.37;;
6642;SDS011;3357;48.050;7.800;2023-11-22T03:55:58;8.07;;;4.97;;
6642;SDS011;3357;48.050;7.800;2023-11-22T03:58:23;9.03;;;5.53;;
6642;SDS011;3357;48.050;7.800;2023-11-22T04:00:48;9.33;;;5.23;;
6642;SDS011;3357;48.050;7.800;2023-11-22T04:03:14;11.90;;;6.23;;
6642;SDS011;3357;48.050;7.800;2023-11-22T04:05:39;5.97;;;5.30;;
6642;SDS011;3357;48.050;7.800;2023-11-22T04:08:04;7.47;;;5.30;;
6642;SDS011;3357;48.050;7.800;2023-11-22T04:10:30;7.03;;;5.50;;
6642;SDS011;3357;48.050;7.800;2023-11-22T04:12:55;6.83;;;4.80;;
6642;SDS011;3357;48.050;7.800;2023-11-22T04:15:21;6.70;;;5.33;;
6642;SDS011;3357;48.050;7.800;2023-11-22T04:17:46;6.73;;;5.07;;
6642;SDS011;3357;48.050;7.800;2023-11-22T04:20:12;8.73;;;5.40;;
6642;SDS011;3357;48.050;7.800;2023-11-22T04:22:43;7.67;;;5.77;;
6642;SDS011;3357;48.050;7.800;2023-11-22T04:25:10;6.30;;;5.00;;
6642;SDS011;3357;48.050;7.800;2023-11-22T04:27:38;6.93;;;5.17;;
6642;SDS011;3357;48.050;7.800;2023-11-22T04:30:04;6.63;;;5.23;;
6642;SDS011;3357;48.050;7.800;2023-11-22T04:32:33;14.40;;;5.93;;
6642;SDS011;3357;48.050;7.800;2023-11-22T04:35:01;7.33;;;5.07;;
6642;SDS011;3357;48.050;7.800;2023-11-22T04:37:28;8.30;;;5.13;;
6642;SDS011;3357;48.050;7.800;2023-11-22T04:39:56;5.30;;;4.80;;
6642;SDS011;3357;48.050;7.800;2023-11-22T04:42:22;6.27;;;4.63;;
6642;SDS011;3357;48.050;7.800;2023-11-22T04:44:47;5.70;;;4.60;;
6642;SDS011;3357;48.050;7.800;2023-11-22T04:47:12;10.23;;;4.10;;
6642;SDS011;3357;48.050;7.800;2023-11-22T04:49:37;6.53;;;4.50;;
6642;SDS011;3357;48.050;7.800;2023-11-22T04:52:03;6.30;;;4.53;;
6642;SDS011;3357;48.050;7.800;2023-11-22T04:54:28;4.67;;;4.27;;
6642;SDS011;3357;48.050;7.800;2023-11-22T04:56:54;5.73;;;3.47;;
6642;SDS011;3357;48.050;7.800;2023-11-22T04:59:19;4.47;;;4.00;;
6642;SDS011;3357;48.050;7.800;2023-11-22T05:01:45;4.90;;;3.70;;
6642;SDS011;3357;48.050;7.800;2023-11-22T05:04:10;3.73;;;3.43;;
6642;SDS011;3357;48.050;7.800;2023-11-22T05:06:35;3.83;;;3.40;;
6642;SDS011;3357;48.050;7.800;2023-11-22T05:09:01;3.13;;;2.83;;
6642;SDS011;3357;48.050;7.800;2023-11-22T05:11:26;3.70;;;2.90;;
6642;SDS011;3357;48.050;7.800;2023-11-22T05:13:52;4.30;;;3.20;;
6642;SDS011;3357;48.050;7.800;2023-11-22T05:16:18;4.17;;;2.80;;
6642;SDS011;3357;48.050;7.800;2023-11-22T05:18:43;2.77;;;2.57;;
6642;SDS011;3357;48.050;7.800;2023-11-22T05:21:09;3.70;;;2.53;;
6642;SDS011;3357;48.050;7.800;2023-11-22T05:23:34;4.17;;;2.50;;
6642;SDS011;3357;48.050;7.800;2023-11-22T05:26:02;4.63;;;2.87;;
6642;SDS011;3357;48.050;7.800;2023-11-22T05:28:29;2.37;;;2.17;;
6642;SDS011;3357;48.050;7.800;2023-11-22T05:30:54;2.47;;;2.27;;
6642;SDS011;3357;48.050;7.800;2023-11-22T05:33:19;1.80;;;1.70;;
6642;SDS011;3357;48.050;7.800;2023-11-22T05:35:44;2.07;;;1.97;;
6642;SDS011;3357;48.050;7.800;2023-11-22T05:38:10;1.83;;;1.73;;
6642;SDS011;3357;48.050;7.800;2023-11-22T05:40:35;3.10;;;1.63;;
6642;SDS011;3357;48.050;7.800;2023-11-22T05:43:00;1.97;;;1.53;;
6642;SDS011;3357;48.050;7.800;2023-11-22T05:45:26;1.83;;;1.60;;
6642;SDS011;3357;48.050;7.800;2023-11-22T05:47:51;1.23;;;1.13;;
6642;SDS011;3357;48.050;7.800;2023-11-22T05:50:17;4.40;;;1.70;;
6642;SDS011;3357;48.050;7.800;2023-11-22T05:52:43;1.43;;;1.33;;
6642;SDS011;3357;48.050;7.800;2023-11-22T05:55:09;1.77;;;1.67;;
6642;SDS011;3357;48.050;7.800;2023-11-22T05:57:34;1.67;;;1.57;;
6642;SDS011;3357;48.050;7.800;2023-11-22T06:00:00;2.47;;;1.67;;
6642;SDS011;3357;48.050;7.800;2023-11-22T06:02:25;3.17;;;1.60;;
6642;SDS011;3357;48.050;7.800;2023-11-22T06:04:50;8.63;;;1.70;;
6642;SDS011;3357;48.050;7.800;2023-11-22T06:07:16;1.77;;;1.67;;
6642;SDS011;3357;48.050;7.800;2023-11-22T06:09:41;1.60;;;1.50;;
6642;SDS011;3357;48.050;7.800;2023-11-22T06:12:06;1.53;;;1.43;;
6642;SDS011;3357;48.050;7.800;2023-11-22T06:14:32;1.37;;;1.30;;
6642;SDS011;3357;48.050;7.800;2023-11-22T06:16:57;2.10;;;1.80;;
6642;SDS011;3357;48.050;7.800;2023-11-22T06:19:22;1.60;;;1.50;;
6642;SDS011;3357;48.050;7.800;2023-11-22T06:21:48;1.50;;;1.40;;
6642;SDS011;3357;48.050;7.800;2023-11-22T06:24:13;2.67;;;2.47;;
6642;SDS011;3357;48.050;7.800;2023-11-22T06:26:43;2.43;;;1.80;;
6642;SDS011;3357;48.050;7.800;2023-11-22T06:29:11;2.60;;;2.00;;
6642;SDS011;3357;48.050;7.800;2023-11-22T06:31:36;2.00;;;1.90;;
6642;SDS011;3357;48.050;7.800;2023-11-22T06:34:01;3.87;;;1.97;;
6642;SDS011;3357;48.050;7.800;2023-11-22T06:36:26;2.03;;;1.80;;
6642;SDS011;3357;48.050;7.800;2023-11-22T06:38:53;1.80;;;1.70;;
6642;SDS011;3357;48.050;7.800;2023-11-22T06:41:19;2.40;;;2.23;;
6642;SDS011;3357;48.050;7.800;2023-11-22T06:43:46;2.03;;;1.90;;
6642;SDS011;3357;48.050;7.800;2023-11-22T06:46:12;1.77;;;1.67;;
6642;SDS011;3357;48.050;7.800;2023-11-22T06:48:37;7.03;;;2.33;;
6642;SDS011;3357;48.050;7.800;2023-11-22T06:51:02;2.10;;;1.97;;
6642;SDS011;3357;48.050;7.800;2023-11-22T06:53:28;3.03;;;2.30;;
6642;SDS011;3357;48.050;7.800;2023-11-22T06:55:53;2.67;;;2.23;;
6642;SDS011;3357;48.050;7.800;2023-11-22T06:58:18;2.63;;;2.20;;
6642;SDS011;3357;48.050;7.800;2023-11-22T07:00:44;2.20;;;2.03;;
6642;SDS011;3357;48.050;7.800;2023-11-22T07:03:09;3.40;;;3.10;;
6642;SDS011;3357;48.050;7.800;2023-11-22T07:05:35;3.70;;;2.30;;
6642;SDS011;3357;48.050;7.800;2023-11-22T07:08:01;2.87;;;2.67;;
6642;SDS011;3357;48.050;7.800;2023-11-22T07:10:27;2.63;;;2.43;;
6642;SDS011;3357;48.050;7.800;2023-11-22T07:12:52;3.60;;;2.67;;
6642;SDS011;3357;48.050;7.800;2023-11-22T07:15:17;5.90;;;2.90;;
6642;SDS011;3357;48.050;7.800;2023-11-22T07:17:42;4.40;;;3.30;;
6642;SDS011;3357;48.050;7.800;2023-11-22T07:20:08;6.87;;;3.37;;
6642;SDS011;3357;48.050;7.800;2023-11-22T07:22:37;6.93;;;3.53;;
6642;SDS011;3357;48.050;7.800;2023-11-22T07:25:03;3.77;;;3.40;;
6642;SDS011;3357;48.050;7.800;2023-11-22T07:27:28;4.77;;;3.60;;
6642;SDS011;3357;48.050;7.800;2023-11-22T07:29:54;3.60;;;3.20;;
6642;SDS011;3357;48.050;7.800;2023-11-22T07:32:19;9.70;;;3.80;;
6642;SDS011;3357;48.050;7.800;2023-11-22T07:34:47;3.97;;;3.60;;
6642;SDS011;3357;48.050;7.800;2023-11-22T07:37:13;5.80;;;4.27;;
6642;SDS011;3357;48.050;7.800;2023-11-22T07:39:39;4.37;;;3.80;;
6642;SDS011;3357;48.050;7.800;2023-11-22T07:42:05;9.13;;;3.70;;
6642;SDS011;3357;48.050;7.800;2023-11-22T07:44:34;3.43;;;3.13;;
6642;SDS011;3357;48.050;7.800;2023-11-22T07:47:01;3.57;;;2.90;;
6642;SDS011;3357;48.050;7.800;2023-11-22T07:49:27;4.20;;;3.50;;
6642;SDS011;3357;48.050;7.800;2023-11-22T07:51:53;8.23;;;3.33;;
6642;SDS011;3357;48.050;7.800;2023-11-22T07:54:19;6.90;;;3.47;;
6642;SDS011;3357;48.050;7.800;2023-11-22T07:56:47;5.77;;;3.30;;
6642;SDS011;3357;48.050;7.800;2023-11-22T07:59:13;12.60;;;3.57;;
6642;SDS011;3357;48.050;7.800;2023-11-22T08:01:41;5.07;;;3.43;;
6642;SDS011;3357;48.050;7.800;2023-11-22T08:04:08;6.10;;;3.77;;
6642;SDS011;3357;48.050;7.800;2023-11-22T08:06:34;3.53;;;3.00;;
6642;SDS011;3357;48.050;7.800;2023-11-22T08:09:00;5.10;;;4.13;;
6642;SDS011;3357;48.050;7.800;2023-11-22T08:11:26;3.90;;;3.57;;
6642;SDS011;3357;48.050;7.800;2023-11-22T08:13:52;4.10;;;3.23;;
6642;SDS011;3357;48.050;7.800;2023-11-22T08:16:20;8.10;;;3.60;;
6642;SDS011;3357;48.050;7.800;2023-11-22T08:18:45;4.10;;;3.00;;
6642;SDS011;3357;48.050;7.800;2023-11-22T08:21:10;4.13;;;3.07;;
6642;SDS011;3357;48.050;7.800;2023-11-22T08:23:35;4.10;;;3.33;;
6642;SDS011;3357;48.050;7.800;2023-11-22T08:26:01;7.77;;;3.23;;
6642;SDS011;3357;48.050;7.800;2023-11-22T08:28:27;6.03;;;3.87;;
6642;SDS011;3357;48.050;7.800;2023-11-22T08:30:54;5.97;;;2.90;;
6642;SDS011;3357;48.050;7.800;2023-11-22T08:33:19;3.97;;;3.43;;
6642;SDS011;3357;48.050;7.800;2023-11-22T08:35:44;3.80;;;3.20;;
6642;SDS011;3357;48.050;7.800;2023-11-22T08:38:15;4.10;;;3.43;;
6642;SDS011;3357;48.050;7.800;2023-11-22T08:40:41;5.47;;;3.10;;
6642;SDS011;3357;48.050;7.800;2023-11-22T08:43:07;3.80;;;3.30;;
6642;SDS011;3357;48.050;7.800;2023-11-22T08:45:32;5.73;;;3.57;;
6642;SDS011;3357;48.050;7.800;2023-11-22T08:47:58;9.13;;;3.10;;
6642;SDS011;3357;48.050;7.800;2023-11-22T08:50:24;5.73;;;3.00;;
6642;SDS011;3357;48.050;7.800;2023-11-22T08:52:49;3.17;;;2.80;;
6642;SDS011;3357;48.050;7.800;2023-11-22T08:55:18;4.00;;;3.27;;
6642;SDS011;3357;48.050;7.800;2023-11-22T08:57:47;4.13;;;3.30;;
6642;SDS011;3357;48.050;7.800;2023-11-22T09:00:13;5.83;;;3.30;;
6642;SDS011;3357;48.050;7.800;2023-11-22T09:02:39;4.00;;;3.10;;
6642;SDS011;3357;48.050;7.800;2023-11-22T09:05:05;5.33;;;3.10;;
6642;SDS011;3357;48.050;7.800;2023-11-22T09:07:33;7.97;;;3.10;;
6642;SDS011;3357;48.050;7.800;2023-11-22T09:10:00;4.30;;;3.10;;
6642;SDS011;3357;48.050;7.800;2023-11-22T09:12:34;3.60;;;3.00;;
6642;SDS011;3357;48.050;7.800;2023-11-22T09:14:59;4.80;;;3.13;;
6642;SDS011;3357;48.050;7.800;2023-11-22T09:17:25;9.50;;;3.70;;
6642;SDS011;3357;48.050;7.800;2023-11-22T09:19:50;3.53;;;2.93;;
6642;SDS011;3357;48.050;7.800;2023-11-22T09:22:15;3.10;;;2.80;;
6642;SDS011;3357;48.050;7.800;2023-11-22T09:24:41;5.13;;;2.77;;
6642;SDS011;3357;48.050;7.800;2023-11-22T09:27:06;5.10;;;3.07;;
6642;SDS011;3357;48.050;7.800;2023-11-22T09:29:31;5.93;;;3.47;;
6642;SDS011;3357;48.050;7.800;2023-11-22T09:31:58;4.50;;;3.27;;
6642;SDS011;3357;48.050;7.800;2023-11-22T09:34:25;4.30;;;2.77;;
6642;SDS011;3357;48.050;7.800;2023-11-22T09:36:51;3.00;;;2.70;;
6642;SDS011;3357;48.050;7.800;2023-11-22T09:39:16;3.30;;;3.00;;
6642;SDS011;3357;48.050;7.800;2023-11-22T09:41:46;4.00;;;2.70;;
6642;SDS011;3357;48.050;7.800;2023-11-22T09:44:11;4.03;;;2.63;;
6642;SDS011;3357;48.050;7.800;2023-11-22T09:46:37;4.60;;;3.17;;
6642;SDS011;3357;48.050;7.800;2023-11-22T09:49:05;7.47;;;4.20;;
6642;SDS011;3357;48.050;7.800;2023-11-22T09:51:33;5.83;;;2.90;;
6642;SDS011;3357;48.050;7.800;2023-11-22T09:54:03;3.17;;;2.87;;
6642;SDS011;3357;48.050;7.800;2023-11-22T09:56:34;5.77;;;2.70;;
6642;SDS011;3357;48.050;7.800;2023-11-22T09:59:01;6.30;;;2.87;;
6642;SDS011;3357;48.050;7.800;2023-11-22T10:01:28;6.87;;;3.13;;
6642;SDS011;3357;48.050;7.800;2023-11-22T10:03:55;8.33;;;3.10;;
6642;SDS011;3357;48.050;7.800;2023-11-22T10:06:22;2.80;;;2.47;;
6642;SDS011;3357;48.050;7.800;2023-11-22T10:08:47;4.80;;;2.70;;
6642;SDS011;3357;48.050;7.800;2023-11-22T10:11:14;2.63;;;2.43;;
6642;SDS011;3357;48.050;7.800;2023-11-22T10:13:41;4.30;;;2.60;;
6642;SDS011;3357;48.050;7.800;2023-11-22T10:16:10;4.40;;;2.93;;
6642;SDS011;3357;48.050;7.800;2023-11-22T10:18:41;4.80;;;2.50;;
6642;SDS011;3357;48.050;7.800;2023-11-22T10:21:22;2.77;;;2.20;;
6642;SDS011;3357;48.050;7.800;2023-11-22T10:24:02;10.30;;;2.60;;
6642;SDS011;3357;48.050;7.800;2023-11-22T10:26:28;5.00;;;2.10;;
6642;SDS011;3357;48.050;7.800;2023-11-22T10:28:54;2.73;;;2.53;;
6642;SDS011;3357;48.050;7.800;2023-11-22T10:31:20;3.90;;;3.07;;
6642;SDS011;3357;48.050;7.800;2023-11-22T10:33:47;3.00;;;2.20;;
6642;SDS011;3357;48.050;7.800;2023-11-22T10:36:12;4.00;;;2.93;;
6642;SDS011;3357;48.050;7.800;2023-11-22T10:38:38;4.70;;;2.40;;
6642;SDS011;3357;48.050;7.800;2023-11-22T10:41:07;3.47;;;2.63;;
6642;SDS011;3357;48.050;7.800;2023-11-22T10:43:34;3.73;;;2.50;;
6642;SDS011;3357;48.050;7.800;2023-11-22T10:46:00;3.00;;;2.73;;
6642;SDS011;3357;48.050;7.800;2023-11-22T10:48:27;2.10;;;2.00;;
6642;SDS011;3357;48.050;7.800;2023-11-22T10:50:54;4.47;;;2.63;;
6642;SDS011;3357;48.050;7.800;2023-11-22T10:53:20;2.20;;;1.87;;
6642;SDS011;3357;48.050;7.800;2023-11-22T10:55:50;3.10;;;2.33;;
6642;SDS011;3357;48.050;7.800;2023-11-22T10:58:18;2.83;;;2.37;;
6642;SDS011;3357;48.050;7.800;2023-11-22T11:00:45;8.73;;;4.50;;
6642;SDS011;3357;48.050;7.800;2023-11-22T11:03:12;9.73;;;5.50;;
6642;SDS011;3357;48.050;7.800;2023-11-22T11:05:41;2.07;;;1.80;;
6642;SDS011;3357;48.050;7.800;2023-11-22T11:08:07;2.47;;;2.00;;
6642;SDS011;3357;48.050;7.800;2023-11-22T11:10:38;1.93;;;1.83;;
6642;SDS011;3357;48.050;7.800;2023-11-22T11:13:05;1.70;;;1.60;;
6642;SDS011;3357;48.050;7.800;2023-11-22T11:15:30;1.90;;;1.77;;
6642;SDS011;3357;48.050;7.800;2023-11-22T11:17:56;2.77;;;2.27;;
6642;SDS011;3357;48.050;7.800;2023-11-22T11:20:22;2.10;;;1.90;;
6642;SDS011;3357;48.050;7.800;2023-11-22T11:22:48;1.63;;;1.53;;
6642;SDS011;3357;48.050;7.800;2023-11-22T11:25:15;1.87;;;1.77;;
6642;SDS011;3357;48.050;7.800;2023-11-22T11:27:42;3.63;;;1.90;;
6642;SDS011;3357;48.050;7.800;2023-11-22T11:32:57;3.13;;;1.73;;
6642;SDS011;3357;48.050;7.800;2023-11-22T11:35:38;5.77;;;1.60;;
6642;SDS011;3357;48.050;7.800;2023-11-22T11:38:04;1.93;;;1.83;;
6642;SDS011;3357;48.050;7.800;2023-11-22T11:40:36;2.10;;;1.87;;
6642;SDS011;3357;48.050;7.800;2023-11-22T11:43:01;2.80;;;1.67;;
6642;SDS011;3357;48.050;7.800;2023-11-22T11:45:27;2.00;;;1.63;;
6642;SDS011;3357;48.050;7.800;2023-11-22T11:47:52;1.50;;;1.40;;
6642;SDS011;3357;48.050;7.800;2023-11-22T11:50:20;1.67;;;1.57;;
6642;SDS011;3357;48.050;7.800;2023-11-22T11:52:46;1.93;;;1.83;;
6642;SDS011;3357;48.050;7.800;2023-11-22T11:55:12;1.87;;;1.57;;
6642;SDS011;3357;48.050;7.800;2023-11-22T11:57:37;1.63;;;1.40;;
6642;SDS011;3357;48.050;7.800;2023-11-22T12:00:02;2.50;;;2.20;;
6642;SDS011;3357;48.050;7.800;2023-11-22T12:02:30;1.90;;;1.70;;
6642;SDS011;3357;48.050;7.800;2023-11-22T12:04:55;4.40;;;2.73;;
6642;SDS011;3357;48.050;7.800;2023-11-22T12:07:20;3.10;;;1.73;;
6642;SDS011;3357;48.050;7.800;2023-11-22T12:09:46;1.93;;;1.80;;
6642;SDS011;3357;48.050;7.800;2023-11-22T12:12:12;3.00;;;2.40;;
6642;SDS011;3357;48.050;7.800;2023-11-22T12:14:37;2.10;;;1.60;;
6642;SDS011;3357;48.050;7.800;2023-11-22T12:17:03;4.40;;;2.00;;
6642;SDS011;3357;48.050;7.800;2023-11-22T12:19:28;2.07;;;1.80;;
6642;SDS011;3357;48.050;7.800;2023-11-22T12:21:56;2.80;;;2.23;;
6642;SDS011;3357;48.050;7.800;2023-11-22T12:24:22;4.50;;;2.70;;
6642;SDS011;3357;48.050;7.800;2023-11-22T12:26:48;3.30;;;2.47;;
6642;SDS011;3357;48.050;7.800;2023-11-22T12:29:15;3.97;;;2.53;;
6642;SDS011;3357;48.050;7.800;2023-11-22T12:31:44;6.23;;;2.60;;
6642;SDS011;3357;48.050;7.800;2023-11-22T12:34:12;3.20;;;1.87;;
6642;SDS011;3357;48.050;7.800;2023-11-22T12:36:40;4.00;;;2.20;;
6642;SDS011;3357;48.050;7.800;2023-11-22T12:39:09;2.30;;;2.07;;
6642;SDS011;3357;48.050;7.800;2023-11-22T12:41:42;2.20;;;1.73;;
6642;SDS011;3357;48.050;7.800;2023-11-22T12:44:11;2.43;;;2.17;;
6642;SDS011;3357;48.050;7.800;2023-11-22T12:46:50;5.23;;;1.80;;
6642;SDS011;3357;48.050;7.800;2023-11-22T12:49:28;2.40;;;1.90;;
6642;SDS011;3357;48.050;7.800;2023-11-22T12:51:54;2.13;;;1.60;;
6642;SDS011;3357;48.050;7.800;2023-11-22T12:54:21;4.07;;;2.30;;
6642;SDS011;3357;48.050;7.800;2023-11-22T12:56:51;4.07;;;2.43;;
6642;SDS011;3357;48.050;7.800;2023-11-22T12:59:19;5.17;;;2.80;;
6642;SDS011;3357;48.050;7.800;2023-11-22T13:01:45;6.10;;;3.27;;
6642;SDS011;3357;48.050;7.800;2023-11-22T13:04:10;5.77;;;3.80;;
6642;SDS011;3357;48.050;7.800;2023-11-22T13:06:36;7.93;;;3.30;;
6642;SDS011;3357;48.050;7.800;2023-11-22T13:09:02;4.40;;;3.13;;
6642;SDS011;3357;48.050;7.800;2023-11-22T13:11:28;5.43;;;3.50;;
6642;SDS011;3357;48.050;7.800;2023-11-22T13:13:53;3.10;;;2.77;;
6642;SDS011;3357;48.050;7.800;2023-11-22T13:16:18;6.40;;;2.97;;
6642;SDS011;3357;48.050;7.800;2023-11-22T13:18:44;4.33;;;2.67;;
6642;SDS011;3357;48.050;7.800;2023-11-22T13:21:09;4.53;;;3.13;;
6642;SDS011;3357;48.050;7.800;2023-11-22T13:23:34;4.53;;;3.23;;
6642;SDS011;3357;48.050;7.800;2023-11-22T13:26:00;3.77;;;2.67;;
6642;SDS011;3357;48.050;7.800;2023-11-22T13:28:25;3.87;;;3.57;;
6642;SDS011;3357;48.050;7.800;2023-11-22T13:30:51;3.60;;;3.00;;
6642;SDS011;3357;48.050;7.800;2023-11-22T13:33:16;3.53;;;2.60;;
6642;SDS011;3357;48.050;7.800;2023-11-22T13:35:42;3.03;;;2.37;;
6642;SDS011;3357;48.050;7.800;2023-11-22T13:38:09;2.47;;;2.27;;
6642;SDS011;3357;48.050;7.800;2023-11-22T13:40:37;3.10;;;2.73;;
6642;SDS011;3357;48.050;7.800;2023-11-22T13:43:06;2.13;;;1.97;;
6642;SDS011;3357;48.050;7.800;2023-11-22T13:45:32;3.20;;;1.93;;
6642;SDS011;3357;48.050;7.800;2023-11-22T13:47:59;3.30;;;2.47;;
6642;SDS011;3357;48.050;7.800;2023-11-22T13:50:34;4.10;;;2.73;;
6642;SDS011;3357;48.050;7.800;2023-11-22T13:52:59;2.57;;;2.37;;
6642;SDS011;3357;48.050;7.800;2023-11-22T13:55:24;3.17;;;1.83;;
6642;SDS011;3357;48.050;7.800;2023-11-22T13:57:50;2.40;;;2.10;;
6642;SDS011;3357;48.050;7.800;2023-11-22T14:00:20;2.70;;;1.90;;
6642;SDS011;3357;48.050;7.800;2023-11-22T14:02:55;2.33;;;2.13;;
6642;SDS011;3357;48.050;7.800;2023-11-22T14:05:25;2.50;;;2.30;;
6642;SDS011;3357;48.050;7.800;2023-11-22T14:07:51;1.97;;;1.63;;
6642;SDS011;3357;48.050;7.800;2023-11-22T14:10:17;2.40;;;2.20;;
6642;SDS011;3357;48.050;7.800;2023-11-22T14:12:43;4.50;;;2.37;;
6642;SDS011;3357;48.050;7.800;2023-11-22T14:15:09;3.03;;;2.37;;
6642;SDS011;3357;48.050;7.800;2023-11-22T14:17:36;3.17;;;2.10;;
6642;SDS011;3357;48.050;7.800;2023-11-22T14:20:03;2.10;;;1.90;;
6642;SDS011;3357;48.050;7.800;2023-11-22T14:22:30;2.67;;;2.13;;
6642;SDS011;3357;48.050;7.800;2023-11-22T14:24:56;2.70;;;2.30;;
6642;SDS011;3357;48.050;7.800;2023-11-22T14:27:22;2.90;;;2.27;;
6642;SDS011;3357;48.050;7.800;2023-11-22T14:29:47;10.30;;;3.03;;
6642;SDS011;3357;48.050;7.800;2023-11-22T14:32:14;3.80;;;2.67;;
6642;SDS011;3357;48.050;7.800;2023-11-22T14:34:40;8.43;;;3.70;;
6642;SDS011;3357;48.050;7.800;2023-11-22T14:37:08;4.70;;;3.10;;
6642;SDS011;3357;48.050;7.800;2023-11-22T14:39:36;5.80;;;3.37;;
6642;SDS011;3357;48.050;7.800;2023-11-22T14:42:02;4.50;;;3.03;;
6642;SDS011;3357;48.050;7.800;2023-11-22T14:44:28;6.50;;;2.77;;
6642;SDS011;3357;48.050;7.800;2023-11-22T14:46:53;8.70;;;2.77;;
6642;SDS011;3357;48.050;7.800;2023-11-22T14:49:18;2.83;;;2.27;;
6642;SDS011;3357;48.050;7.800;2023-11-22T14:51:46;5.33;;;2.90;;
6642;SDS011;3357;48.050;7.800;2023-11-22T14:54:11;2.23;;;2.03;;
6642;SDS011;3357;48.050;7.800;2023-11-22T14:56:36;3.97;;;2.80;;
6642;SDS011;3357;48.050;7.800;2023-11-22T14:59:03;3.20;;;2.20;;
6642;SDS011;3357;48.050;7.800;2023-11-22T15:01:28;5.77;;;2.33;;
6642;SDS011;3357;48.050;7.800;2023-11-22T15:03:54;2.00;;;1.87;;
6642;SDS011;3357;48.050;7.800;2023-11-22T15:06:19;2.43;;;2.23;;
6642;SDS011;3357;48.050;7.800;2023-11-22T15:08:45;2.87;;;2.30;;